sensor_id;sensor_type;location;lat;lon;timestamp;P1;durP1;ratioP1;P2;durP2;ratioP2
71566;SDS011;59403;47.456;19.120;2023-03-17T00:00:49;20.67;;;10.50;;
71566;SDS011;59403;47.456;19.120;2023-03-17T00:03:18;19.77;;;9.73;;
71566;SDS011;59403;47.456;19.120;2023-03-17T00:05:48;18.55;;;9.57;;
71566;SDS011;59403;47.456;19.120;2023-03-17T00:08:18;23.10;;;9.47;;
71566;SDS011;59403;47.456;19.120;2023-03-17T00:10:47;21.17;;;9.60;;
71566;SDS011;59403;47.456;19.120;2023-03-17T00:13:15;21.33;;;9.85;;
71566;SDS011;59403;47.456;19.120;2023-03-17T00:15:43;22.62;;;9.02;;
71566;SDS011;59403;47.456;19.120;2023-03-17T00:18:10;17.52;;;9.10;;
71566;SDS011;59403;47.456;19.120;2023-03-17T00:20:40;21.10;;;9.60;;
71566;SDS011;59403;47.456;19.120;2023-03-17T00:23:08;23.50;;;9.68;;
71566;SDS011;59403;47.456;19.120;2023-03-17T00:25:40;21.40;;;10.38;;
71566;SDS011;59403;47.456;19.120;2023-03-17T00:28:12;18.98;;;8.95;;
71566;SDS011;59403;47.456;19.120;2023-03-17T00:30:45;18.12;;;9.23;;
71566;SDS011;59403;47.456;19.120;2023-03-17T00:33:13;16.17;;;8.37;;
71566;SDS011;59403;47.456;19.120;2023-03-17T00:35:42;17.20;;;7.72;;
71566;SDS011;59403;47.456;19.120;2023-03-17T00:38:12;17.90;;;8.45;;
71566;SDS011;59403;47.456;19.120;2023-03-17T00:40:42;19.70;;;8.13;;
71566;SDS011;59403;47.456;19.120;2023-03-17T00:43:10;17.35;;;8.02;;
71566;SDS011;59403;47.456;19.120;2023-03-17T00:45:39;15.30;;;8.17;;
71566;SDS011;59403;47.456;19.120;2023-03-17T00:48:09;18.70;;;7.90;;
71566;SDS011;59403;47.456;19.120;2023-03-17T00:50:39;14.87;;;7.32;;
71566;SDS011;59403;47.456;19.120;2023-03-17T00:53:09;16.58;;;7.30;;
71566;SDS011;59403;47.456;19.120;2023-03-17T00:55:37;16.35;;;6.57;;
71566;SDS011;59403;47.456;19.120;2023-03-17T00:58:08;17.83;;;7.20;;
71566;SDS011;59403;47.456;19.120;2023-03-17T01:00:39;16.12;;;7.15;;
71566;SDS011;59403;47.456;19.120;2023-03-17T01:03:07;15.30;;;7.32;;
71566;SDS011;59403;47.456;19.120;2023-03-17T01:05:36;18.00;;;7.10;;
71566;SDS011;59403;47.456;19.120;2023-03-17T01:08:04;15.93;;;7.05;;
71566;SDS011;59403;47.456;19.120;2023-03-17T01:10:32;14.77;;;7.97;;
71566;SDS011;59403;47.456;19.120;2023-03-17T01:12:59;15.82;;;7.68;;
71566;SDS011;59403;47.456;19.120;2023-03-17T01:15:27;15.18;;;7.85;;
71566;SDS011;59403;47.456;19.120;2023-03-17T01:17:57;15.68;;;7.25;;
71566;SDS011;59403;47.456;19.120;2023-03-17T01:20:25;15.18;;;6.80;;
71566;SDS011;59403;47.456;19.120;2023-03-17T01:22:53;14.17;;;6.60;;
71566;SDS011;59403;47.456;19.120;2023-03-17T01:25:21;15.55;;;7.70;;
71566;SDS011;59403;47.456;19.120;2023-03-17T01:27:49;14.38;;;6.87;;
71566;SDS011;59403;47.456;19.120;2023-03-17T01:30:24;13.45;;;6.45;;
71566;SDS011;59403;47.456;19.120;2023-03-17T01:32:53;15.43;;;6.80;;
71566;SDS011;59403;47.456;19.120;2023-03-17T01:35:22;14.33;;;6.87;;
71566;SDS011;59403;47.456;19.120;2023-03-17T01:37:50;15.48;;;7.35;;
71566;SDS011;59403;47.456;19.120;2023-03-17T01:40:18;11.73;;;6.45;;
71566;SDS011;59403;47.456;19.120;2023-03-17T01:42:50;13.25;;;8.18;;
71566;SDS011;59403;47.456;19.120;2023-03-17T01:48:22;14.83;;;7.03;;
71566;SDS011;59403;47.456;19.120;2023-03-17T01:50:52;14.68;;;6.97;;
71566;SDS011;59403;47.456;19.120;2023-03-17T01:53:19;13.50;;;7.18;;
71566;SDS011;59403;47.456;19.120;2023-03-17T01:55:48;14.82;;;7.03;;
71566;SDS011;59403;47.456;19.120;2023-03-17T01:58:17;18.35;;;6.82;;
71566;SDS011;59403;47.456;19.120;2023-03-17T02:00:48;11.23;;;6.30;;
71566;SDS011;59403;47.456;19.120;2023-03-17T02:03:15;13.50;;;6.62;;
71566;SDS011;59403;47.456;19.120;2023-03-17T02:05:43;12.90;;;5.80;;
71566;SDS011;59403;47.456;19.120;2023-03-17T02:08:14;13.60;;;6.78;;
71566;SDS011;59403;47.456;19.120;2023-03-17T02:10:42;11.65;;;6.20;;
71566;SDS011;59403;47.456;19.120;2023-03-17T02:13:11;15.83;;;7.07;;
71566;SDS011;59403;47.456;19.120;2023-03-17T02:15:40;14.57;;;6.37;;
71566;SDS011;59403;47.456;19.120;2023-03-17T02:18:09;14.07;;;6.78;;
71566;SDS011;59403;47.456;19.120;2023-03-17T02:23:39;15.48;;;6.12;;
71566;SDS011;59403;47.456;19.120;2023-03-17T02:26:06;15.00;;;6.93;;
71566;SDS011;59403;47.456;19.120;2023-03-17T02:28:33;12.25;;;6.30;;
71566;SDS011;59403;47.456;19.120;2023-03-17T02:31:00;15.20;;;6.55;;
71566;SDS011;59403;47.456;19.120;2023-03-17T02:33:28;16.05;;;7.40;;
71566;SDS011;59403;47.456;19.120;2023-03-17T02:35:56;13.55;;;6.68;;
71566;SDS011;59403;47.456;19.120;2023-03-17T02:38:23;14.03;;;6.50;;
71566;SDS011;59403;47.456;19.120;2023-03-17T02:40:51;13.88;;;6.60;;
71566;SDS011;59403;47.456;19.120;2023-03-17T02:43:18;14.63;;;6.35;;
71566;SDS011;59403;47.456;19.120;2023-03-17T02:45:45;18.52;;;7.12;;
71566;SDS011;59403;47.456;19.120;2023-03-17T02:48:12;16.10;;;7.30;;
71566;SDS011;59403;47.456;19.120;2023-03-17T02:50:39;15.53;;;6.70;;
71566;SDS011;59403;47.456;19.120;2023-03-17T02:53:06;14.65;;;6.95;;
71566;SDS011;59403;47.456;19.120;2023-03-17T02:55:33;17.77;;;7.28;;
71566;SDS011;59403;47.456;19.120;2023-03-17T02:58:02;13.25;;;6.75;;
71566;SDS011;59403;47.456;19.120;2023-03-17T03:00:28;14.82;;;7.62;;
71566;SDS011;59403;47.456;19.120;2023-03-17T03:02:55;15.20;;;7.37;;
71566;SDS011;59403;47.456;19.120;2023-03-17T03:05:23;14.82;;;7.00;;
71566;SDS011;59403;47.456;19.120;2023-03-17T03:07:49;14.05;;;6.90;;
71566;SDS011;59403;47.456;19.120;2023-03-17T03:10:16;15.55;;;7.28;;
71566;SDS011;59403;47.456;19.120;2023-03-17T03:12:43;14.87;;;6.97;;
71566;SDS011;59403;47.456;19.120;2023-03-17T03:15:12;14.17;;;6.90;;
71566;SDS011;59403;47.456;19.120;2023-03-17T03:17:39;16.70;;;7.35;;
71566;SDS011;59403;47.456;19.120;2023-03-17T03:20:07;15.85;;;7.28;;
71566;SDS011;59403;47.456;19.120;2023-03-17T03:22:37;15.02;;;7.90;;
71566;SDS011;59403;47.456;19.120;2023-03-17T03:25:05;15.20;;;8.07;;
71566;SDS011;59403;47.456;19.120;2023-03-17T03:27:32;16.40;;;8.33;;
71566;SDS011;59403;47.456;19.120;2023-03-17T03:30:00;17.55;;;8.20;;
71566;SDS011;59403;47.456;19.120;2023-03-17T03:32:28;17.83;;;7.55;;
71566;SDS011;59403;47.456;19.120;2023-03-17T03:34:55;17.83;;;7.53;;
71566;SDS011;59403;47.456;19.120;2023-03-17T03:37:22;21.87;;;8.73;;
71566;SDS011;59403;47.456;19.120;2023-03-17T03:39:49;17.87;;;8.90;;
71566;SDS011;59403;47.456;19.120;2023-03-17T03:42:16;17.83;;;8.63;;
71566;SDS011;59403;47.456;19.120;2023-03-17T03:44:43;17.08;;;10.25;;
71566;SDS011;59403;47.456;19.120;2023-03-17T03:47:10;18.42;;;9.38;;
71566;SDS011;59403;47.456;19.120;2023-03-17T03:49:39;15.02;;;8.73;;
71566;SDS011;59403;47.456;19.120;2023-03-17T03:52:06;16.47;;;9.07;;
71566;SDS011;59403;47.456;19.120;2023-03-17T03:54:33;18.02;;;9.27;;
71566;SDS011;59403;47.456;19.120;2023-03-17T03:57:00;17.37;;;9.20;;
71566;SDS011;59403;47.456;19.120;2023-03-17T03:59:27;18.02;;;9.50;;
71566;SDS011;59403;47.456;19.120;2023-03-17T04:01:54;18.10;;;8.48;;
71566;SDS011;59403;47.456;19.120;2023-03-17T04:04:21;14.83;;;8.97;;
71566;SDS011;59403;47.456;19.120;2023-03-17T04:06:50;20.55;;;8.60;;
71566;SDS011;59403;47.456;19.120;2023-03-17T04:09:17;18.58;;;9.20;;
71566;SDS011;59403;47.456;19.120;2023-03-17T04:11:44;20.85;;;10.52;;
71566;SDS011;59403;47.456;19.120;2023-03-17T04:14:11;19.62;;;10.05;;
71566;SDS011;59403;47.456;19.120;2023-03-17T04:16:38;16.03;;;9.03;;
71566;SDS011;59403;47.456;19.120;2023-03-17T04:19:06;19.05;;;9.32;;
71566;SDS011;59403;47.456;19.120;2023-03-17T04:21:33;23.42;;;9.85;;
71566;SDS011;59403;47.456;19.120;2023-03-17T04:24:01;19.60;;;10.50;;
71566;SDS011;59403;47.456;19.120;2023-03-17T04:26:29;18.40;;;10.20;;
71566;SDS011;59403;47.456;19.120;2023-03-17T04:28:56;19.33;;;9.50;;
71566;SDS011;59403;47.456;19.120;2023-03-17T04:31:23;19.87;;;10.05;;
71566;SDS011;59403;47.456;19.120;2023-03-17T04:33:50;25.85;;;11.18;;
71566;SDS011;59403;47.456;19.120;2023-03-17T04:36:21;24.02;;;10.18;;
71566;SDS011;59403;47.456;19.120;2023-03-17T04:38:49;23.05;;;9.98;;
71566;SDS011;59403;47.456;19.120;2023-03-17T04:41:18;21.20;;;10.80;;
71566;SDS011;59403;47.456;19.120;2023-03-17T04:43:45;23.12;;;11.23;;
71566;SDS011;59403;47.456;19.120;2023-03-17T04:46:12;26.02;;;10.77;;
71566;SDS011;59403;47.456;19.120;2023-03-17T04:48:40;22.23;;;11.10;;
71566;SDS011;59403;47.456;19.120;2023-03-17T04:51:07;25.52;;;11.10;;
71566;SDS011;59403;47.456;19.120;2023-03-17T04:53:34;19.77;;;10.60;;
71566;SDS011;59403;47.456;19.120;2023-03-17T04:56:01;23.83;;;11.70;;
71566;SDS011;59403;47.456;19.120;2023-03-17T04:58:29;26.20;;;11.75;;
71566;SDS011;59403;47.456;19.120;2023-03-17T05:00:56;21.80;;;11.20;;
71566;SDS011;59403;47.456;19.120;2023-03-17T05:03:24;26.08;;;11.68;;
71566;SDS011;59403;47.456;19.120;2023-03-17T05:05:52;25.23;;;11.77;;
71566;SDS011;59403;47.456;19.120;2023-03-17T05:08:18;26.12;;;10.20;;
71566;SDS011;59403;47.456;19.120;2023-03-17T05:10:46;23.70;;;11.70;;
71566;SDS011;59403;47.456;19.120;2023-03-17T05:13:12;27.00;;;11.20;;
71566;SDS011;59403;47.456;19.120;2023-03-17T05:15:45;21.02;;;10.80;;
71566;SDS011;59403;47.456;19.120;2023-03-17T05:18:12;25.87;;;11.50;;
71566;SDS011;59403;47.456;19.120;2023-03-17T05:20:39;26.70;;;11.80;;
71566;SDS011;59403;47.456;19.120;2023-03-17T05:23:06;22.73;;;11.07;;
71566;SDS011;59403;47.456;19.120;2023-03-17T05:25:34;24.70;;;10.70;;
71566;SDS011;59403;47.456;19.120;2023-03-17T05:28:00;24.30;;;10.68;;
71566;SDS011;59403;47.456;19.120;2023-03-17T05:30:27;20.73;;;11.50;;
71566;SDS011;59403;47.456;19.120;2023-03-17T05:32:56;19.17;;;11.30;;
71566;SDS011;59403;47.456;19.120;2023-03-17T05:35:23;22.98;;;11.48;;
71566;SDS011;59403;47.456;19.120;2023-03-17T05:37:50;22.45;;;12.07;;
71566;SDS011;59403;47.456;19.120;2023-03-17T05:40:17;27.73;;;11.73;;
71566;SDS011;59403;47.456;19.120;2023-03-17T05:42:44;24.20;;;12.37;;
71566;SDS011;59403;47.456;19.120;2023-03-17T05:45:11;22.75;;;11.10;;
71566;SDS011;59403;47.456;19.120;2023-03-17T05:47:38;25.30;;;12.15;;
71566;SDS011;59403;47.456;19.120;2023-03-17T05:50:07;26.05;;;11.90;;
71566;SDS011;59403;47.456;19.120;2023-03-17T05:52:36;22.25;;;12.20;;
71566;SDS011;59403;47.456;19.120;2023-03-17T05:55:03;25.33;;;12.90;;
71566;SDS011;59403;47.456;19.120;2023-03-17T05:57:31;32.92;;;13.18;;
71566;SDS011;59403;47.456;19.120;2023-03-17T05:59:58;24.98;;;12.52;;
71566;SDS011;59403;47.456;19.120;2023-03-17T06:02:26;25.62;;;12.30;;
71566;SDS011;59403;47.456;19.120;2023-03-17T06:04:53;24.83;;;12.27;;
71566;SDS011;59403;47.456;19.120;2023-03-17T06:07:22;27.17;;;13.27;;
71566;SDS011;59403;47.456;19.120;2023-03-17T06:09:49;25.67;;;11.98;;
71566;SDS011;59403;47.456;19.120;2023-03-17T06:12:16;27.15;;;12.27;;
71566;SDS011;59403;47.456;19.120;2023-03-17T06:14:43;27.45;;;12.93;;
71566;SDS011;59403;47.456;19.120;2023-03-17T06:17:09;25.88;;;12.37;;
71566;SDS011;59403;47.456;19.120;2023-03-17T06:19:37;27.03;;;12.40;;
71566;SDS011;59403;47.456;19.120;2023-03-17T06:22:04;22.70;;;12.32;;
71566;SDS011;59403;47.456;19.120;2023-03-17T06:24:32;24.17;;;12.52;;
71566;SDS011;59403;47.456;19.120;2023-03-17T06:27:00;24.75;;;12.65;;
71566;SDS011;59403;47.456;19.120;2023-03-17T06:29:26;28.98;;;13.15;;
71566;SDS011;59403;47.456;19.120;2023-03-17T06:31:56;28.57;;;13.27;;
71566;SDS011;59403;47.456;19.120;2023-03-17T06:34:23;26.25;;;13.27;;
71566;SDS011;59403;47.456;19.120;2023-03-17T06:36:50;28.20;;;13.48;;
71566;SDS011;59403;47.456;19.120;2023-03-17T06:39:18;25.50;;;13.15;;
71566;SDS011;59403;47.456;19.120;2023-03-17T06:41:46;26.80;;;13.93;;
71566;SDS011;59403;47.456;19.120;2023-03-17T06:44:14;29.37;;;15.00;;
71566;SDS011;59403;47.456;19.120;2023-03-17T06:46:41;29.27;;;14.18;;
71566;SDS011;59403;47.456;19.120;2023-03-17T06:49:08;35.05;;;16.62;;
71566;SDS011;59403;47.456;19.120;2023-03-17T06:51:37;30.25;;;15.18;;
71566;SDS011;59403;47.456;19.120;2023-03-17T06:54:04;30.27;;;15.10;;
71566;SDS011;59403;47.456;19.120;2023-03-17T06:56:32;28.80;;;15.77;;
71566;SDS011;59403;47.456;19.120;2023-03-17T06:59:00;27.05;;;13.50;;
71566;SDS011;59403;47.456;19.120;2023-03-17T07:01:29;27.98;;;15.18;;
71566;SDS011;59403;47.456;19.120;2023-03-17T07:03:56;27.25;;;15.23;;
71566;SDS011;59403;47.456;19.120;2023-03-17T07:06:23;29.80;;;13.32;;
71566;SDS011;59403;47.456;19.120;2023-03-17T07:08:50;25.10;;;12.03;;
71566;SDS011;59403;47.456;19.120;2023-03-17T07:11:17;22.37;;;11.20;;
71566;SDS011;59403;47.456;19.120;2023-03-17T07:13:44;20.92;;;11.18;;
71566;SDS011;59403;47.456;19.120;2023-03-17T07:16:13;22.08;;;9.57;;
71566;SDS011;59403;47.456;19.120;2023-03-17T07:18:43;16.23;;;8.27;;
71566;SDS011;59403;47.456;19.120;2023-03-17T07:21:10;16.40;;;8.50;;
71566;SDS011;59403;47.456;19.120;2023-03-17T07:23:37;14.65;;;8.43;;
71566;SDS011;59403;47.456;19.120;2023-03-17T07:26:04;17.73;;;8.20;;
71566;SDS011;59403;47.456;19.120;2023-03-17T07:28:31;15.75;;;7.90;;
71566;SDS011;59403;47.456;19.120;2023-03-17T07:30:58;14.38;;;7.57;;
71566;SDS011;59403;47.456;19.120;2023-03-17T07:33:28;14.63;;;7.50;;
71566;SDS011;59403;47.456;19.120;2023-03-17T07:36:00;15.43;;;7.28;;
71566;SDS011;59403;47.456;19.120;2023-03-17T07:38:29;15.85;;;6.57;;
71566;SDS011;59403;47.456;19.120;2023-03-17T07:40:56;12.55;;;6.72;;
71566;SDS011;59403;47.456;19.120;2023-03-17T07:43:24;12.15;;;6.15;;
71566;SDS011;59403;47.456;19.120;2023-03-17T07:45:53;11.10;;;6.47;;
71566;SDS011;59403;47.456;19.120;2023-03-17T07:48:23;10.73;;;5.50;;
71566;SDS011;59403;47.456;19.120;2023-03-17T07:51:03;16.52;;;4.90;;
71566;SDS011;59403;47.456;19.120;2023-03-17T07:53:31;8.38;;;4.60;;
71566;SDS011;59403;47.456;19.120;2023-03-17T07:55:59;9.43;;;4.57;;
71566;SDS011;59403;47.456;19.120;2023-03-17T07:58:26;10.53;;;3.80;;
71566;SDS011;59403;47.456;19.120;2023-03-17T08:00:53;7.90;;;3.45;;
71566;SDS011;59403;47.456;19.120;2023-03-17T08:03:20;7.82;;;3.85;;
71566;SDS011;59403;47.456;19.120;2023-03-17T08:05:50;10.00;;;3.65;;
71566;SDS011;59403;47.456;19.120;2023-03-17T08:08:36;7.78;;;3.10;;
71566;SDS011;59403;47.456;19.120;2023-03-17T08:11:09;7.20;;;2.83;;
71566;SDS011;59403;47.456;19.120;2023-03-17T08:13:45;6.47;;;2.33;;
71566;SDS011;59403;47.456;19.120;2023-03-17T08:16:27;6.82;;;2.83;;
71566;SDS011;59403;47.456;19.120;2023-03-17T08:18:54;5.60;;;3.15;;
71566;SDS011;59403;47.456;19.120;2023-03-17T08:21:22;7.10;;;2.70;;
71566;SDS011;59403;47.456;19.120;2023-03-17T08:23:52;6.00;;;2.60;;
71566;SDS011;59403;47.456;19.120;2023-03-17T08:26:19;7.32;;;2.75;;
71566;SDS011;59403;47.456;19.120;2023-03-17T08:28:46;7.05;;;2.75;;
71566;SDS011;59403;47.456;19.120;2023-03-17T08:31:15;6.03;;;2.45;;
71566;SDS011;59403;47.456;19.120;2023-03-17T08:33:46;5.80;;;3.10;;
71566;SDS011;59403;47.456;19.120;2023-03-17T08:36:24;7.70;;;3.03;;
71566;SDS011;59403;47.456;19.120;2023-03-17T08:38:57;5.15;;;2.70;;
71566;SDS011;59403;47.456;19.120;2023-03-17T08:41:32;8.15;;;2.90;;
71566;SDS011;59403;47.456;19.120;2023-03-17T08:47:16;4.07;;;2.00;;
71566;SDS011;59403;47.456;19.120;2023-03-17T08:49:49;5.97;;;2.43;;
71566;SDS011;59403;47.456;19.120;2023-03-17T08:52:16;5.22;;;2.33;;
71566;SDS011;59403;47.456;19.120;2023-03-17T08:54:45;5.65;;;2.53;;
71566;SDS011;59403;47.456;19.120;2023-03-17T08:57:12;5.28;;;2.28;;
71566;SDS011;59403;47.456;19.120;2023-03-17T08:59:40;8.30;;;3.08;;
71566;SDS011;59403;47.456;19.120;2023-03-17T09:02:08;5.23;;;2.30;;
71566;SDS011;59403;47.456;19.120;2023-03-17T09:04:36;4.40;;;2.03;;
71566;SDS011;59403;47.456;19.120;2023-03-17T09:07:03;4.70;;;2.47;;
71566;SDS011;59403;47.456;19.120;2023-03-17T09:09:30;4.80;;;2.40;;
71566;SDS011;59403;47.456;19.120;2023-03-17T09:12:00;7.72;;;2.70;;
71566;SDS011;59403;47.456;19.120;2023-03-17T09:14:27;5.10;;;2.30;;
71566;SDS011;59403;47.456;19.120;2023-03-17T09:16:54;5.25;;;2.28;;
71566;SDS011;59403;47.456;19.120;2023-03-17T09:19:21;3.50;;;2.00;;
71566;SDS011;59403;47.456;19.120;2023-03-17T09:21:49;6.28;;;2.00;;
71566;SDS011;59403;47.456;19.120;2023-03-17T09:24:16;6.80;;;2.45;;
71566;SDS011;59403;47.456;19.120;2023-03-17T09:26:44;5.13;;;2.30;;
71566;SDS011;59403;47.456;19.120;2023-03-17T09:29:12;6.22;;;2.50;;
71566;SDS011;59403;47.456;19.120;2023-03-17T09:31:39;6.40;;;2.67;;
71566;SDS011;59403;47.456;19.120;2023-03-17T09:34:07;6.53;;;2.40;;
71566;SDS011;59403;47.456;19.120;2023-03-17T09:36:34;5.90;;;2.55;;
71566;SDS011;59403;47.456;19.120;2023-03-17T09:39:01;4.67;;;2.37;;
71566;SDS011;59403;47.456;19.120;2023-03-17T09:41:32;5.20;;;2.08;;
71566;SDS011;59403;47.456;19.120;2023-03-17T09:44:17;5.25;;;2.05;;
71566;SDS011;59403;47.456;19.120;2023-03-17T09:46:59;6.15;;;2.25;;
71566;SDS011;59403;47.456;19.120;2023-03-17T09:49:34;7.28;;;2.08;;
71566;SDS011;59403;47.456;19.120;2023-03-17T09:52:08;5.37;;;2.17;;
71566;SDS011;59403;47.456;19.120;2023-03-17T09:54:37;6.57;;;2.00;;
71566;SDS011;59403;47.456;19.120;2023-03-17T09:57:05;3.90;;;2.22;;
71566;SDS011;59403;47.456;19.120;2023-03-17T09:59:42;4.15;;;2.10;;
71566;SDS011;59403;47.456;19.120;2023-03-17T10:02:15;5.43;;;2.25;;
71566;SDS011;59403;47.456;19.120;2023-03-17T10:04:47;3.53;;;1.50;;
71566;SDS011;59403;47.456;19.120;2023-03-17T10:07:15;8.10;;;2.25;;
71566;SDS011;59403;47.456;19.120;2023-03-17T10:09:50;5.22;;;1.98;;
71566;SDS011;59403;47.456;19.120;2023-03-17T10:12:24;5.87;;;2.17;;
71566;SDS011;59403;47.456;19.120;2023-03-17T10:15:05;3.80;;;2.10;;
71566;SDS011;59403;47.456;19.120;2023-03-17T10:17:42;6.40;;;2.67;;
71566;SDS011;59403;47.456;19.120;2023-03-17T10:20:10;4.15;;;2.00;;
71566;SDS011;59403;47.456;19.120;2023-03-17T10:22:42;4.70;;;2.20;;
71566;SDS011;59403;47.456;19.120;2023-03-17T10:25:14;4.35;;;1.98;;
71566;SDS011;59403;47.456;19.120;2023-03-17T10:27:44;4.53;;;2.20;;
71566;SDS011;59403;47.456;19.120;2023-03-17T10:30:21;6.93;;;2.50;;
71566;SDS011;59403;47.456;19.120;2023-03-17T10:32:48;6.35;;;2.00;;
71566;SDS011;59403;47.456;19.120;2023-03-17T10:35:16;6.15;;;2.33;;
71566;SDS011;59403;47.456;19.120;2023-03-17T10:37:45;5.45;;;2.47;;
71566;SDS011;59403;47.456;19.120;2023-03-17T10:40:20;4.35;;;1.95;;
71566;SDS011;59403;47.456;19.120;2023-03-17T10:42:51;6.17;;;2.27;;
71566;SDS011;59403;47.456;19.120;2023-03-17T10:45:22;5.15;;;2.55;;
71566;SDS011;59403;47.456;19.120;2023-03-17T10:47:54;5.57;;;2.58;;
71566;SDS011;59403;47.456;19.120;2023-03-17T10:50:23;5.00;;;2.40;;
71566;SDS011;59403;47.456;19.120;2023-03-17T10:52:55;6.80;;;3.05;;
71566;SDS011;59403;47.456;19.120;2023-03-17T10:55:26;5.40;;;2.27;;
71566;SDS011;59403;47.456;19.120;2023-03-17T10:58:00;4.18;;;2.70;;
71566;SDS011;59403;47.456;19.120;2023-03-17T11:00:31;6.47;;;2.75;;
71566;SDS011;59403;47.456;19.120;2023-03-17T11:03:02;7.20;;;2.60;;
71566;SDS011;59403;47.456;19.120;2023-03-17T11:05:36;4.45;;;2.45;;
71566;SDS011;59403;47.456;19.120;2023-03-17T11:08:07;6.23;;;2.37;;
71566;SDS011;59403;47.456;19.120;2023-03-17T11:10:40;4.87;;;2.65;;
71566;SDS011;59403;47.456;19.120;2023-03-17T11:13:07;6.82;;;3.00;;
71566;SDS011;59403;47.456;19.120;2023-03-17T11:15:36;5.65;;;2.40;;
71566;SDS011;59403;47.456;19.120;2023-03-17T11:18:10;8.30;;;2.70;;
71566;SDS011;59403;47.456;19.120;2023-03-17T11:20:45;4.63;;;2.63;;
71566;SDS011;59403;47.456;19.120;2023-03-17T11:23:19;7.55;;;2.90;;
71566;SDS011;59403;47.456;19.120;2023-03-17T11:25:58;5.30;;;2.85;;
71566;SDS011;59403;47.456;19.120;2023-03-17T11:28:34;5.72;;;2.47;;
71566;SDS011;59403;47.456;19.120;2023-03-17T11:31:08;4.40;;;2.78;;
71566;SDS011;59403;47.456;19.120;2023-03-17T11:33:41;6.87;;;3.00;;
71566;SDS011;59403;47.456;19.120;2023-03-17T11:36:31;6.32;;;2.80;;
71566;SDS011;59403;47.456;19.120;2023-03-17T11:39:09;5.37;;;3.20;;
71566;SDS011;59403;47.456;19.120;2023-03-17T11:41:41;5.60;;;3.03;;
71566;SDS011;59403;47.456;19.120;2023-03-17T11:44:53;7.68;;;3.45;;
71566;SDS011;59403;47.456;19.120;2023-03-17T11:47:38;7.13;;;3.20;;
71566;SDS011;59403;47.456;19.120;2023-03-17T11:50:16;6.00;;;2.67;;
71566;SDS011;59403;47.456;19.120;2023-03-17T11:52:53;6.85;;;2.87;;
71566;SDS011;59403;47.456;19.120;2023-03-17T11:55:34;6.55;;;2.83;;
71566;SDS011;59403;47.456;19.120;2023-03-17T11:58:10;4.87;;;3.00;;
71566;SDS011;59403;47.456;19.120;2023-03-17T12:00:43;5.07;;;3.10;;
71566;SDS011;59403;47.456;19.120;2023-03-17T12:03:17;4.70;;;2.40;;
71566;SDS011;59403;47.456;19.120;2023-03-17T12:05:53;4.87;;;2.62;;
71566;SDS011;59403;47.456;19.120;2023-03-17T12:08:26;6.10;;;2.50;;
71566;SDS011;59403;47.456;19.120;2023-03-17T12:11:00;10.00;;;3.00;;
71566;SDS011;59403;47.456;19.120;2023-03-17T12:13:32;5.73;;;2.80;;
71566;SDS011;59403;47.456;19.120;2023-03-17T12:16:05;7.00;;;3.17;;
71566;SDS011;59403;47.456;19.120;2023-03-17T12:18:37;5.70;;;2.90;;
71566;SDS011;59403;47.456;19.120;2023-03-17T12:21:08;6.18;;;3.00;;
71566;SDS011;59403;47.456;19.120;2023-03-17T12:23:44;4.93;;;2.67;;
71566;SDS011;59403;47.456;19.120;2023-03-17T12:26:14;5.90;;;2.57;;
71566;SDS011;59403;47.456;19.120;2023-03-17T12:28:45;6.87;;;3.05;;
71566;SDS011;59403;47.456;19.120;2023-03-17T12:31:18;6.57;;;2.58;;
71566;SDS011;59403;47.456;19.120;2023-03-17T12:33:51;5.50;;;2.97;;
71566;SDS011;59403;47.456;19.120;2023-03-17T12:36:28;4.90;;;2.78;;
71566;SDS011;59403;47.456;19.120;2023-03-17T12:38:57;5.93;;;2.70;;
71566;SDS011;59403;47.456;19.120;2023-03-17T12:41:47;5.05;;;2.70;;
71566;SDS011;59403;47.456;19.120;2023-03-17T12:44:29;8.15;;;2.92;;
71566;SDS011;59403;47.456;19.120;2023-03-17T12:50:35;5.20;;;2.60;;
71566;SDS011;59403;47.456;19.120;2023-03-17T12:53:30;7.73;;;2.60;;
71566;SDS011;59403;47.456;19.120;2023-03-17T12:56:00;5.28;;;2.60;;
71566;SDS011;59403;47.456;19.120;2023-03-17T12:58:36;5.20;;;3.00;;
71566;SDS011;59403;47.456;19.120;2023-03-17T13:01:05;5.53;;;3.10;;
71566;SDS011;59403;47.456;19.120;2023-03-17T13:06:39;6.03;;;3.00;;
71566;SDS011;59403;47.456;19.120;2023-03-17T13:12:33;7.18;;;2.42;;
71566;SDS011;59403;47.456;19.120;2023-03-17T13:15:20;5.60;;;3.17;;
71566;SDS011;59403;47.456;19.120;2023-03-17T13:18:25;5.93;;;2.85;;
71566;SDS011;59403;47.456;19.120;2023-03-17T13:21:10;5.00;;;2.57;;
71566;SDS011;59403;47.456;19.120;2023-03-17T13:23:41;5.40;;;2.50;;
71566;SDS011;59403;47.456;19.120;2023-03-17T13:26:10;6.72;;;2.85;;
71566;SDS011;59403;47.456;19.120;2023-03-17T13:28:44;5.95;;;2.70;;
71566;SDS011;59403;47.456;19.120;2023-03-17T13:31:14;4.85;;;2.78;;
71566;SDS011;59403;47.456;19.120;2023-03-17T13:34:01;5.23;;;2.50;;
71566;SDS011;59403;47.456;19.120;2023-03-17T13:36:38;8.30;;;2.90;;
71566;SDS011;59403;47.456;19.120;2023-03-17T13:39:26;6.72;;;2.97;;
71566;SDS011;59403;47.456;19.120;2023-03-17T13:42:18;4.22;;;2.60;;
71566;SDS011;59403;47.456;19.120;2023-03-17T13:47:45;4.90;;;2.73;;
71566;SDS011;59403;47.456;19.120;2023-03-17T13:50:12;5.55;;;2.78;;
71566;SDS011;59403;47.456;19.120;2023-03-17T13:52:47;5.85;;;3.08;;
71566;SDS011;59403;47.456;19.120;2023-03-17T13:55:33;6.35;;;3.12;;
71566;SDS011;59403;47.456;19.120;2023-03-17T13:58:21;5.75;;;3.03;;
71566;SDS011;59403;47.456;19.120;2023-03-17T14:00:54;10.03;;;4.43;;
71566;SDS011;59403;47.456;19.120;2023-03-17T14:03:28;7.12;;;3.50;;
71566;SDS011;59403;47.456;19.120;2023-03-17T14:06:02;18.70;;;7.75;;
71566;SDS011;59403;47.456;19.120;2023-03-17T14:08:33;9.75;;;4.80;;
71566;SDS011;59403;47.456;19.120;2023-03-17T14:11:07;8.75;;;3.70;;
71566;SDS011;59403;47.456;19.120;2023-03-17T14:13:48;7.97;;;3.83;;
71566;SDS011;59403;47.456;19.120;2023-03-17T14:16:23;8.30;;;3.17;;
71566;SDS011;59403;47.456;19.120;2023-03-17T14:18:54;6.75;;;3.87;;
71566;SDS011;59403;47.456;19.120;2023-03-17T14:21:29;6.90;;;3.40;;
71566;SDS011;59403;47.456;19.120;2023-03-17T14:23:58;5.47;;;3.25;;
71566;SDS011;59403;47.456;19.120;2023-03-17T14:26:28;6.77;;;3.10;;
71566;SDS011;59403;47.456;19.120;2023-03-17T14:28:58;4.75;;;3.12;;
71566;SDS011;59403;47.456;19.120;2023-03-17T14:31:26;6.53;;;3.50;;
71566;SDS011;59403;47.456;19.120;2023-03-17T14:33:55;6.75;;;3.55;;
71566;SDS011;59403;47.456;19.120;2023-03-17T14:36:23;5.53;;;3.10;;
71566;SDS011;59403;47.456;19.120;2023-03-17T14:38:51;5.90;;;3.07;;
71566;SDS011;59403;47.456;19.120;2023-03-17T14:41:20;6.12;;;3.25;;
71566;SDS011;59403;47.456;19.120;2023-03-17T14:43:50;6.12;;;3.20;;
71566;SDS011;59403;47.456;19.120;2023-03-17T14:46:20;5.35;;;2.97;;
71566;SDS011;59403;47.456;19.120;2023-03-17T14:48:50;6.57;;;3.00;;
71566;SDS011;59403;47.456;19.120;2023-03-17T14:51:25;7.37;;;3.07;;
71566;SDS011;59403;47.456;19.120;2023-03-17T14:53:55;7.32;;;3.30;;
71566;SDS011;59403;47.456;19.120;2023-03-17T14:56:33;6.12;;;3.28;;
71566;SDS011;59403;47.456;19.120;2023-03-17T14:59:14;6.95;;;3.50;;
71566;SDS011;59403;47.456;19.120;2023-03-17T15:01:44;7.70;;;3.30;;
71566;SDS011;59403;47.456;19.120;2023-03-17T15:04:14;6.57;;;3.13;;